Mackinac Island, MI

4:17 AM EDT on July 25, 2017 (GMT -0400)
Mackinac Island

Weather History for KMCD - September, 2012

Change the Weather History Date:

Tuesday, September 11, 2012

  Actual Average Record
Temperature  
Mean Temperature 68 °F -  
Max Temperature 77 °F 67 °F 80 °F (1982)
Min Temperature 59 °F 54 °F 42 °F (2007)
Cooling Degree Days 3    
Growing Degree Days 18 (Base 50)    
Moisture  
Dew Point 53 °F    
Average Humidity 60    
Maximum Humidity 77    
Minimum Humidity 39    
Precipitation  
Precipitation 0.00 in - - ()
Sea Level Pressure  
Sea Level Pressure 30.01 in    
Wind  
Wind Speed 10 mph (SSW)    
Max Wind Speed 17 mph    
Max Gust Speed 26 mph    
Visibility 10 miles    
Events      
Averages and records for this station are not official NWS values.
T = Trace of Precipitation, MM = Missing Value Source: NWS Daily Summary

Daily Weather History Graph

Daily Weather History Graph

Search for Another Location

Airport or City:

Trip Planner

Search our weather history database for the weather conditions in past years. The results will help you decide how hot, cold, wet, or windy it might be!

Date:

Astronomy

Sep. 11, 2012 Rise Set
Actual Time 7:12 AM EDT 7:56 PM EDT
Civil Twilight 6:42 AM EDT 8:26 PM EDT
Nautical Twilight 6:06 AM EDT 9:02 PM EDT
Astronomical Twilight 5:28 AM EDT 9:39 PM EDT
Moon 2:16 AM EDT (9/11) 5:16 PM EDT (9/11)
Length of Visible Light 13h 44m
Length of Day
12h 44m
Waning Crescent, 21% of the Moon is Illuminated
Sep 11
Waning Crescent
Sep 15
New
Sep 22
First Quarter
Sep 29
Full
Oct 8
Last Quarter

Hourly Weather History & Observations

Time (EDT) Temp. Dew Point Humidity Pressure Visibility Wind Dir Wind Speed Gust Speed Precip Events Conditions
12:05 AM 60.8 °F 53.6 °F 77% 30.04 in 10.0 mi SSW 9.2 mph - N/A   Clear
12:25 AM 60.8 °F 51.8 °F 72% 30.05 in 10.0 mi SSW 9.2 mph - N/A   Clear
12:45 AM 60.8 °F 51.8 °F 72% 30.04 in 10.0 mi SSW 11.5 mph 17.3 mph N/A   Clear
1:05 AM 60.8 °F 51.8 °F 72% 30.04 in 10.0 mi SSW 9.2 mph 18.4 mph N/A   Clear
1:25 AM 60.8 °F 51.8 °F 72% 30.04 in 10.0 mi SSW 8.1 mph - N/A   Clear
1:45 AM 60.8 °F 51.8 °F 72% 30.04 in 10.0 mi SSW 9.2 mph - N/A   Clear
2:05 AM 60.8 °F 51.8 °F 72% 30.04 in 10.0 mi SSW 11.5 mph 17.3 mph N/A   Clear
2:25 AM 60.8 °F 51.8 °F 72% 30.04 in 10.0 mi SSW 10.4 mph 17.3 mph N/A   Clear
2:45 AM 60.8 °F 51.8 °F 72% 30.04 in 10.0 mi SSW 11.5 mph 16.1 mph N/A   Clear
3:05 AM 59.0 °F 51.8 °F 77% 30.03 in 10.0 mi SSW 9.2 mph - N/A   Clear
3:25 AM 60.8 °F 51.8 °F 72% 30.03 in 10.0 mi SSW 9.2 mph 17.3 mph N/A   Clear
3:45 AM 60.8 °F 51.8 °F 72% 30.03 in 10.0 mi SSW 11.5 mph 16.1 mph N/A   Clear
4:05 AM 60.8 °F 51.8 °F 72% 30.02 in 10.0 mi SSW 11.5 mph - N/A   Clear
4:25 AM 60.8 °F 51.8 °F 72% 30.02 in 10.0 mi SSW 11.5 mph - N/A   Clear
4:45 AM 60.8 °F 51.8 °F 72% 30.02 in 10.0 mi SSW 10.4 mph - N/A   Clear
5:05 AM 60.8 °F 51.8 °F 72% 30.02 in 10.0 mi SSW 11.5 mph - N/A   Clear
5:25 AM 60.8 °F 51.8 °F 72% 30.02 in 10.0 mi SSW 10.4 mph 16.1 mph N/A   Clear
5:45 AM 62.6 °F 51.8 °F 68% 30.02 in 10.0 mi SSW 10.4 mph - N/A   Clear
6:05 AM 60.8 °F 51.8 °F 72% 30.03 in 10.0 mi SSW 9.2 mph - N/A   Clear
6:25 AM 60.8 °F 53.6 °F 77% 30.03 in 10.0 mi SSW 9.2 mph - N/A   Clear
6:45 AM 60.8 °F 53.6 °F 77% 30.03 in 10.0 mi SSW 10.4 mph - N/A   Clear
7:05 AM 60.8 °F 53.6 °F 77% 30.04 in 10.0 mi SSW 10.4 mph 16.1 mph N/A   Clear
7:25 AM 60.8 °F 53.6 °F 77% 30.03 in 10.0 mi SSW 11.5 mph 16.1 mph N/A   Clear
7:45 AM 60.8 °F 53.6 °F 77% 30.04 in 10.0 mi SSW 11.5 mph 18.4 mph N/A   Clear
8:05 AM 62.6 °F 55.4 °F 77% 30.03 in 10.0 mi SSW 13.8 mph 21.9 mph N/A   Clear
8:25 AM 62.6 °F 55.4 °F 77% 30.03 in 10.0 mi SSW 11.5 mph 18.4 mph N/A   Clear
8:45 AM 62.6 °F 55.4 °F 77% 30.03 in 10.0 mi SSW 11.5 mph 17.3 mph N/A   Clear
9:05 AM 62.6 °F 55.4 °F 77% 30.03 in 10.0 mi SSW 9.2 mph 16.1 mph N/A   Clear
9:25 AM 64.4 °F 55.4 °F 73% 30.03 in 10.0 mi SSW 11.5 mph 17.3 mph N/A   Clear
9:45 AM 66.2 °F 55.4 °F 68% 30.03 in 10.0 mi SW 11.5 mph 17.3 mph N/A   Clear
10:05 AM 66.2 °F 55.4 °F 68% 30.03 in 10.0 mi SSW 10.4 mph 18.4 mph N/A   Clear
10:25 AM 68.0 °F 55.4 °F 64% 30.03 in 10.0 mi SW 9.2 mph - N/A   Clear
10:45 AM 69.8 °F 55.4 °F 60% 30.03 in 10.0 mi SSW 8.1 mph - N/A   Clear
11:05 AM 69.8 °F 53.6 °F 56% 30.03 in 10.0 mi SW 8.1 mph 18.4 mph N/A   Clear
11:25 AM 71.6 °F 53.6 °F 53% 30.02 in 10.0 mi SW 15.0 mph 20.7 mph N/A   Clear
11:45 AM 71.6 °F 53.6 °F 53% 30.02 in 10.0 mi SW 12.7 mph 19.6 mph N/A   Clear
12:05 PM 73.4 °F 53.6 °F 50% 30.02 in 10.0 mi SW 10.4 mph 23.0 mph N/A   Clear
12:25 PM 73.4 °F 51.8 °F 47% 30.02 in 10.0 mi SW 15.0 mph 23.0 mph N/A   Clear
12:45 PM 73.4 °F 51.8 °F 47% 30.02 in 10.0 mi SW 10.4 mph 23.0 mph N/A   Clear
1:05 PM 73.4 °F 51.8 °F 47% 30.02 in 10.0 mi SW 15.0 mph 26.5 mph N/A   Clear
1:25 PM 73.4 °F 51.8 °F 47% 30.01 in 10.0 mi SW 17.3 mph 26.5 mph N/A   Clear
1:45 PM 73.4 °F 51.8 °F 47% 30.01 in 10.0 mi SW 12.7 mph 25.3 mph N/A   Clear
2:05 PM 73.4 °F 53.6 °F 50% 30.01 in 10.0 mi WSW 13.8 mph 20.7 mph N/A   Clear
2:25 PM 73.4 °F 55.4 °F 53% 30.01 in 10.0 mi SW 5.8 mph 21.9 mph N/A   Clear
2:45 PM 73.4 °F 57.2 °F 57% 30.00 in 10.0 mi WSW 10.4 mph 17.3 mph N/A   Clear
3:05 PM 71.6 °F 57.2 °F 60% 30.00 in 10.0 mi WSW 8.1 mph - N/A   Clear
3:25 PM 73.4 °F 57.2 °F 57% 30.00 in 10.0 mi SW 11.5 mph 16.1 mph N/A   Clear
3:45 PM 75.2 °F 53.6 °F 47% 29.99 in 10.0 mi SW 12.7 mph 19.6 mph N/A   Clear
4:05 PM 73.4 °F 57.2 °F 57% 29.99 in 10.0 mi WSW 4.6 mph - N/A   Clear
4:25 PM 75.2 °F 51.8 °F 44% 29.98 in 10.0 mi SSW 10.4 mph - N/A   Clear
4:45 PM 75.2 °F 53.6 °F 47% 29.99 in 10.0 mi SSW 11.5 mph 18.4 mph N/A   Clear
5:05 PM 75.2 °F 51.8 °F 44% 29.98 in 10.0 mi SSW 11.5 mph 18.4 mph N/A   Clear
5:25 PM 75.2 °F 51.8 °F 44% 29.97 in 10.0 mi SSW 11.5 mph 17.3 mph N/A   Clear
5:45 PM 77.0 °F 50.0 °F 39% 29.97 in 10.0 mi SSW 10.4 mph 18.4 mph N/A   Clear
6:05 PM 75.2 °F 51.8 °F 44% 29.97 in 10.0 mi SSW 10.4 mph 17.3 mph N/A   Clear
6:25 PM 75.2 °F 51.8 °F 44% 29.97 in 10.0 mi SSW 6.9 mph - N/A   Clear
6:45 PM 75.2 °F 51.8 °F 44% 29.97 in 10.0 mi SSW 5.8 mph - N/A   Clear
7:05 PM 75.2 °F 51.8 °F 44% 29.97 in 10.0 mi SW 5.8 mph - N/A   Clear
7:25 PM 73.4 °F 51.8 °F 47% 29.97 in 10.0 mi SW 10.4 mph - N/A   Clear
7:45 PM 73.4 °F 51.8 °F 47% 29.97 in 10.0 mi SW 6.9 mph - N/A   Clear
8:05 PM 73.4 °F 50.0 °F 44% 29.97 in 10.0 mi SW 5.8 mph - N/A   Clear
8:25 PM 71.6 °F 51.8 °F 50% 29.97 in 10.0 mi SW 5.8 mph - N/A   Clear
8:45 PM 71.6 °F 51.8 °F 50% 29.98 in 10.0 mi SSW 5.8 mph - N/A   Clear
9:05 PM 71.6 °F 51.8 °F 50% 29.98 in 10.0 mi SSW 8.1 mph - N/A   Clear
9:25 PM 71.6 °F 51.8 °F 50% 29.98 in 10.0 mi SSW 8.1 mph - N/A   Clear
9:45 PM 69.8 °F 51.8 °F 53% 29.98 in 10.0 mi SSW 11.5 mph 18.4 mph N/A   Clear
10:05 PM 69.8 °F 51.8 °F 53% 29.98 in 10.0 mi SSW 10.4 mph 18.4 mph N/A   Clear
10:25 PM 69.8 °F 53.6 °F 56% 29.98 in 10.0 mi SSW 10.4 mph 17.3 mph N/A   Clear
10:45 PM 69.8 °F 53.6 °F 56% 29.98 in 10.0 mi SSW 12.7 mph 20.7 mph N/A   Clear
11:05 PM 69.8 °F 53.6 °F 56% 29.97 in 10.0 mi SSW 12.7 mph 23.0 mph N/A   Clear
11:25 PM 69.8 °F 53.6 °F 56% 29.97 in 10.0 mi SSW 13.8 mph 26.5 mph N/A   Clear
11:45 PM 69.8 °F 53.6 °F 56% 29.98 in 10.0 mi SSW 13.8 mph 23.0 mph N/A   Clear